createdAt,value
2018-09-03T00:00:57.368Z,15.00
2018-09-03T00:03:24.953Z,15.00
2018-09-03T00:05:52.721Z,15.00
2018-09-03T00:08:21.333Z,15.00
2018-09-03T00:10:48.943Z,15.10
2018-09-03T00:13:17.270Z,15.20
2018-09-03T00:15:44.839Z,15.20
2018-09-03T00:18:12.399Z,15.30
2018-09-03T00:20:40.733Z,15.40
2018-09-03T00:23:08.289Z,15.30
2018-09-03T00:25:35.844Z,15.40
2018-09-03T00:28:03.421Z,15.40
2018-09-03T00:30:30.993Z,15.40
2018-09-03T00:33:04.258Z,15.30
2018-09-03T00:38:44.222Z,15.20
2018-09-03T00:44:26.009Z,15.20
2018-09-03T00:46:55.298Z,15.10
2018-09-03T00:49:23.631Z,15.00
2018-09-03T00:51:51.192Z,15.00
2018-09-03T00:54:18.753Z,14.90
2018-09-03T00:56:48.275Z,14.80
2018-09-03T00:59:15.842Z,14.70
2018-09-03T01:01:44.408Z,14.70
2018-09-03T01:04:11.977Z,14.60
2018-09-03T01:06:39.578Z,14.50
2018-09-03T01:09:07.149Z,14.50
2018-09-03T01:11:36.624Z,14.60
2018-09-03T01:14:04.185Z,14.60
2018-09-03T01:16:31.744Z,14.70
2018-09-03T01:18:59.302Z,14.60
2018-09-03T01:21:26.869Z,14.60
2018-09-03T01:23:54.433Z,14.60
2018-09-03T01:26:22.002Z,14.70
2018-09-03T01:28:49.565Z,14.80
2018-09-03T01:31:17.125Z,14.80
2018-09-03T01:33:44.689Z,14.90
2018-09-03T01:36:12.249Z,14.90
2018-09-03T01:38:41.757Z,15.00
2018-09-03T01:41:09.321Z,15.00
2018-09-03T01:43:38.825Z,15.00
2018-09-03T01:46:06.384Z,14.90
2018-09-03T01:48:35.885Z,15.00
2018-09-03T01:51:03.441Z,15.00
2018-09-03T01:53:30.999Z,15.10
2018-09-03T01:55:58.565Z,15.10
2018-09-03T01:58:26.124Z,15.10
2018-09-03T02:00:53.685Z,15.00
2018-09-03T02:03:33.895Z,15.10
2018-09-03T02:06:03.366Z,15.10
2018-09-03T02:08:30.929Z,15.10
2018-09-03T02:10:58.496Z,15.10
2018-09-03T02:13:26.059Z,15.10
2018-09-03T02:15:53.621Z,15.10
2018-09-03T02:18:21.184Z,15.10
2018-09-03T02:20:48.745Z,15.00
2018-09-03T02:23:16.297Z,15.00
2018-09-03T02:25:43.857Z,15.00
2018-09-03T02:28:11.417Z,15.00
2018-09-03T02:30:38.979Z,15.00
2018-09-03T02:33:07.501Z,15.00
2018-09-03T02:35:37.756Z,14.70
2018-09-03T02:38:05.316Z,14.70
2018-09-03T02:40:34.841Z,14.70
2018-09-03T02:43:02.400Z,14.70
2018-09-03T02:45:29.956Z,14.70
2018-09-03T02:47:57.514Z,14.70
2018-09-03T02:50:26.037Z,14.80
2018-09-03T02:52:53.600Z,14.90
2018-09-03T02:55:21.935Z,14.90
2018-09-03T02:57:49.497Z,14.90
2018-09-03T03:00:17.056Z,15.00
2018-09-03T03:02:44.624Z,15.00
2018-09-03T03:05:14.129Z,14.90
2018-09-03T03:07:41.688Z,14.90
2018-09-03T03:10:09.256Z,14.80
2018-09-03T03:12:39.543Z,14.70
2018-09-03T03:15:07.122Z,14.70
2018-09-03T03:17:34.680Z,14.60
2018-09-03T03:20:02.242Z,14.70
2018-09-03T03:22:29.817Z,14.70
2018-09-03T03:24:59.085Z,14.60
2018-09-03T03:27:26.646Z,14.60
2018-09-03T03:29:54.207Z,14.60
2018-09-03T03:32:23.705Z,14.50
2018-09-03T03:34:51.266Z,14.60
2018-09-03T03:37:18.834Z,14.60
2018-09-03T03:39:49.112Z,14.60
2018-09-03T03:42:16.665Z,14.50
2018-09-03T03:44:44.229Z,14.60
2018-09-03T03:47:12.745Z,14.60
2018-09-03T03:49:40.335Z,14.70
2018-09-03T03:52:07.907Z,14.70
2018-09-03T03:54:35.469Z,14.80
2018-09-03T03:57:03.037Z,14.80
2018-09-03T03:59:30.609Z,14.70
2018-09-03T04:01:58.203Z,14.70
2018-09-03T04:04:25.765Z,14.70
2018-09-03T04:06:54.089Z,14.70
2018-09-03T04:09:21.651Z,14.60
2018-09-03T04:11:49.249Z,14.70
2018-09-03T04:14:16.804Z,14.70
2018-09-03T04:16:45.137Z,14.80
2018-09-03T04:19:12.701Z,14.80
2018-09-03T04:21:40.265Z,14.80
2018-09-03T04:24:08.756Z,14.80
2018-09-03T04:26:36.322Z,14.80
2018-09-03T04:29:03.887Z,14.80
2018-09-03T04:31:31.449Z,14.80
2018-09-03T04:33:59.778Z,14.90
2018-09-03T04:36:27.341Z,14.80
2018-09-03T04:38:56.856Z,14.80
2018-09-03T04:41:24.425Z,14.80
2018-09-03T04:43:51.993Z,14.80
2018-09-03T04:46:19.557Z,14.80
2018-09-03T04:48:47.890Z,14.90
2018-09-03T04:51:17.405Z,14.90
2018-09-03T04:53:44.972Z,14.90
2018-09-03T04:56:13.515Z,14.90
2018-09-03T04:58:41.073Z,15.00
2018-09-03T05:01:08.641Z,15.00
2018-09-03T05:03:36.198Z,15.00
2018-09-03T05:06:03.791Z,15.00
2018-09-03T05:08:31.349Z,15.00
2018-09-03T05:10:58.919Z,15.10
2018-09-03T05:13:26.476Z,15.00
2018-09-03T05:15:54.806Z,15.00
2018-09-03T05:18:22.377Z,15.00
2018-09-03T05:20:49.945Z,15.00
2018-09-03T05:23:17.508Z,15.00
2018-09-03T05:25:45.074Z,15.00
2018-09-03T05:28:12.629Z,14.90
2018-09-03T05:30:40.244Z,14.90
2018-09-03T05:33:07.813Z,14.90
2018-09-03T05:35:35.401Z,14.80
2018-09-03T05:38:02.965Z,14.80
2018-09-03T05:40:30.530Z,14.80
2018-09-03T05:42:58.918Z,14.90
2018-09-03T05:45:26.457Z,14.90
2018-09-03T05:47:54.780Z,14.80
2018-09-03T05:50:22.379Z,14.80
2018-09-03T05:52:49.925Z,14.70
2018-09-03T05:55:17.492Z,14.80
2018-09-03T05:57:45.056Z,15.00
2018-09-03T06:00:12.625Z,15.10
2018-09-03T06:02:40.956Z,15.20
2018-09-03T06:05:09.109Z,15.20
2018-09-03T06:07:36.673Z,15.20
2018-09-03T06:10:05.189Z,15.20
2018-09-03T06:12:32.748Z,15.30
2018-09-03T06:15:01.234Z,15.30
2018-09-03T06:17:28.803Z,15.30
2018-09-03T06:19:56.368Z,15.40
2018-09-03T06:22:25.658Z,15.30
2018-09-03T06:24:53.993Z,15.30
2018-09-03T06:27:21.565Z,15.30
2018-09-03T06:29:50.043Z,15.30
2018-09-03T06:32:17.608Z,15.20
2018-09-03T06:34:45.165Z,15.20
2018-09-03T06:37:12.751Z,15.10
2018-09-03T06:39:40.357Z,15.10
2018-09-03T06:42:07.933Z,15.30
2018-09-03T06:44:35.500Z,15.40
2018-09-03T06:47:03.071Z,15.40
2018-09-03T06:49:30.648Z,15.30
2018-09-03T06:51:58.212Z,15.40
2018-09-03T06:54:25.777Z,15.40
2018-09-03T06:56:53.336Z,15.50
2018-09-03T06:59:20.902Z,15.50
2018-09-03T07:01:48.470Z,15.70
2018-09-03T07:04:16.030Z,15.90
2018-09-03T07:06:43.621Z,15.90
2018-09-03T07:09:11.187Z,15.90
2018-09-03T07:11:38.753Z,16.00
2018-09-03T07:14:07.090Z,16.10
2018-09-03T07:16:34.653Z,16.10
2018-09-03T07:19:02.217Z,15.90
2018-09-03T07:21:29.784Z,16.10
2018-09-03T07:23:57.346Z,16.30
2018-09-03T07:26:24.913Z,16.30
2018-09-03T07:28:52.495Z,16.50
2018-09-03T07:31:20.068Z,16.70
2018-09-03T07:33:47.631Z,16.90
2018-09-03T07:36:15.201Z,17.10
2018-09-03T07:38:44.701Z,16.90
2018-09-03T07:41:12.287Z,16.70
2018-09-03T07:43:39.861Z,16.50
2018-09-03T07:46:07.426Z,16.60
2018-09-03T07:48:35.786Z,17.00
2018-09-03T07:51:04.207Z,17.10
2018-09-03T07:53:31.705Z,17.10
2018-09-03T07:55:59.268Z,17.10
2018-09-03T07:58:27.833Z,16.90
2018-09-03T08:00:55.408Z,17.00
2018-09-03T08:03:23.030Z,17.30
2018-09-03T08:05:50.592Z,17.30
2018-09-03T08:08:20.109Z,17.10
2018-09-03T08:10:47.674Z,17.00
2018-09-03T08:13:15.229Z,17.20
2018-09-03T08:15:42.789Z,17.40
2018-09-03T08:18:10.358Z,17.60
2018-09-03T08:20:38.928Z,17.60
2018-09-03T08:23:06.485Z,17.50
2018-09-03T08:25:34.972Z,17.50
2018-09-03T08:28:02.541Z,17.40
2018-09-03T08:30:30.882Z,17.20
2018-09-03T08:32:58.441Z,17.20
2018-09-03T08:35:26.003Z,17.20
2018-09-03T08:37:53.582Z,17.10
2018-09-03T08:40:22.879Z,17.10
2018-09-03T08:42:50.446Z,17.00
2018-09-03T08:45:18.008Z,17.40
2018-09-03T08:47:46.341Z,17.90
2018-09-03T08:50:13.933Z,17.90
2018-09-03T08:52:43.438Z,17.80
2018-09-03T08:55:11.773Z,17.40
2018-09-03T08:57:39.346Z,17.40
2018-09-03T09:00:06.918Z,17.60
2018-09-03T09:02:35.068Z,17.50
2018-09-03T09:05:02.629Z,17.60
2018-09-03T09:07:30.198Z,17.70
2018-09-03T09:09:57.770Z,17.80
2018-09-03T09:12:26.105Z,17.90
2018-09-03T09:14:54.593Z,17.90
2018-09-03T09:17:24.132Z,18.00
2018-09-03T09:19:52.462Z,18.00
2018-09-03T09:22:20.035Z,18.00
2018-09-03T09:24:47.599Z,18.10
2018-09-03T09:27:15.165Z,18.10
2018-09-03T09:29:42.736Z,17.90
2018-09-03T09:32:10.305Z,18.00
2018-09-03T09:34:37.879Z,18.00
2018-09-03T09:37:06.353Z,17.90
2018-09-03T09:39:33.947Z,18.00
2018-09-03T09:42:01.500Z,17.90
2018-09-03T09:44:29.059Z,17.80
2018-09-03T09:46:56.665Z,17.80
2018-09-03T09:49:24.244Z,17.80
2018-09-03T09:51:51.820Z,17.90
2018-09-03T09:54:19.376Z,17.90
2018-09-03T09:56:46.962Z,17.80
2018-09-03T09:59:14.538Z,17.70
2018-09-03T10:01:44.017Z,17.70
2018-09-03T10:04:11.638Z,17.50
2018-09-03T10:06:39.925Z,17.50
2018-09-03T10:09:07.493Z,17.50
2018-09-03T10:11:35.061Z,17.50
2018-09-03T10:14:02.640Z,17.60
2018-09-03T10:16:30.197Z,17.60
2018-09-03T10:18:57.758Z,17.60
2018-09-03T10:21:25.341Z,17.80
2018-09-03T10:23:52.902Z,17.90
2018-09-03T10:26:20.560Z,17.70
2018-09-03T10:28:48.060Z,17.80
2018-09-03T10:31:15.622Z,17.60
2018-09-03T10:33:43.172Z,17.60
2018-09-03T10:36:10.941Z,17.50
2018-09-03T10:38:38.517Z,17.60
2018-09-03T10:41:06.113Z,17.60
2018-09-03T10:43:33.680Z,17.80
2018-09-03T10:46:01.251Z,18.00
2018-09-03T10:48:28.817Z,18.30
2018-09-03T10:50:56.381Z,18.40
2018-09-03T10:53:23.960Z,18.50
2018-09-03T10:55:53.468Z,18.60
2018-09-03T10:58:21.033Z,18.70
2018-09-03T11:00:48.616Z,18.80
2018-09-03T11:03:16.174Z,18.90
2018-09-03T11:05:43.739Z,19.00
2018-09-03T11:08:13.237Z,19.20
2018-09-03T11:10:40.806Z,19.10
2018-09-03T11:13:08.423Z,19.10
2018-09-03T11:15:35.959Z,19.30
2018-09-03T11:18:03.518Z,19.30
2018-09-03T11:20:31.085Z,19.40
2018-09-03T11:22:58.650Z,19.40
2018-09-03T11:25:27.165Z,19.10
2018-09-03T11:27:54.741Z,19.10
2018-09-03T11:30:22.301Z,19.20
2018-09-03T11:32:49.862Z,19.10
2018-09-03T11:35:18.450Z,19.20
2018-09-03T11:37:46.010Z,19.10
2018-09-03T11:40:13.565Z,19.00
2018-09-03T11:42:41.121Z,19.10
2018-09-03T11:45:08.681Z,19.20
2018-09-03T11:47:36.250Z,19.30
2018-09-03T11:50:03.815Z,19.50
2018-09-03T11:52:31.390Z,19.60
2018-09-03T11:54:58.949Z,19.70
2018-09-03T11:57:26.510Z,19.70
2018-09-03T11:59:54.843Z,19.70
2018-09-03T12:02:22.400Z,19.70
2018-09-03T12:04:50.873Z,19.70
2018-09-03T12:07:18.439Z,19.40
2018-09-03T12:09:46.955Z,19.50
2018-09-03T12:12:16.453Z,19.30
2018-09-03T12:14:44.774Z,19.40
2018-09-03T12:17:12.338Z,19.30
2018-09-03T12:19:40.820Z,19.30
2018-09-03T12:22:08.387Z,19.20
2018-09-03T12:24:35.953Z,19.40
2018-09-03T12:27:03.518Z,19.60
2018-09-03T12:29:31.081Z,19.70
2018-09-03T12:31:58.654Z,19.70
2018-09-03T12:34:26.214Z,19.70
2018-09-03T12:36:53.795Z,19.20
2018-09-03T12:39:21.354Z,19.20
2018-09-03T12:41:48.913Z,19.40
2018-09-03T12:44:16.469Z,19.50
2018-09-03T12:46:46.027Z,19.40
2018-09-03T12:49:13.594Z,19.50
2018-09-03T12:51:41.150Z,19.60
2018-09-03T12:54:08.717Z,19.60
2018-09-03T12:56:37.038Z,19.30
2018-09-03T12:59:06.554Z,19.30
2018-09-03T13:01:36.004Z,19.50
2018-09-03T13:04:04.328Z,19.90
2018-09-03T13:06:31.891Z,19.90
2018-09-03T13:08:59.453Z,19.80
2018-09-03T13:11:27.054Z,19.70
2018-09-03T13:13:56.273Z,20.00
2018-09-03T13:16:24.774Z,19.90
2018-09-03T13:18:52.384Z,20.00
2018-09-03T13:21:19.929Z,20.00
2018-09-03T13:23:48.261Z,20.10
2018-09-03T13:26:15.824Z,20.00
2018-09-03T13:28:43.385Z,20.10
2018-09-03T13:31:10.951Z,20.10
2018-09-03T13:33:38.513Z,19.90
2018-09-03T13:36:06.142Z,19.80
2018-09-03T13:38:33.645Z,19.90
2018-09-03T13:41:02.161Z,20.00
2018-09-03T13:43:30.688Z,20.30
2018-09-03T13:45:58.257Z,20.30
2018-09-03T13:48:25.822Z,20.50
2018-09-03T13:50:53.394Z,20.50
2018-09-03T13:53:21.734Z,20.70
2018-09-03T13:55:49.294Z,20.70
2018-09-03T13:58:16.865Z,20.50
2018-09-03T14:00:44.429Z,20.20
2018-09-03T14:03:12.760Z,20.30
2018-09-03T14:05:40.321Z,20.30
2018-09-03T14:08:07.879Z,20.60
2018-09-03T14:10:35.443Z,20.90
2018-09-03T14:13:03.025Z,21.20
2018-09-03T14:15:32.540Z,21.40
2018-09-03T14:18:00.865Z,21.10
2018-09-03T14:20:28.436Z,21.10
2018-09-03T14:22:56.017Z,20.80
2018-09-03T14:25:24.587Z,20.70
2018-09-03T14:27:52.154Z,20.40
2018-09-03T14:30:21.670Z,20.40
2018-09-03T14:32:50.006Z,20.60
2018-09-03T14:35:17.575Z,20.60
2018-09-03T14:37:47.096Z,20.60
2018-09-03T14:40:14.661Z,20.50
2018-09-03T14:42:42.235Z,20.70
2018-09-03T14:45:10.744Z,20.30
2018-09-03T14:47:38.314Z,20.20
2018-09-03T14:50:05.888Z,20.30
2018-09-03T14:52:33.445Z,20.50
2018-09-03T14:55:01.016Z,20.50
2018-09-03T14:57:28.578Z,20.50
2018-09-03T14:59:57.215Z,20.50
2018-09-03T15:02:24.875Z,20.50
2018-09-03T15:04:52.352Z,20.70
2018-09-03T15:07:19.915Z,20.90
2018-09-03T15:09:47.485Z,21.20
2018-09-03T15:12:15.050Z,21.80
2018-09-03T15:14:44.373Z,22.20
2018-09-03T15:17:11.949Z,22.20
2018-09-03T15:19:39.522Z,22.80
2018-09-03T15:22:07.104Z,22.90
2018-09-03T15:24:34.678Z,22.70
2018-09-03T15:27:03.542Z,22.40
2018-09-03T15:29:31.120Z,22.10
2018-09-03T15:31:58.685Z,21.90
2018-09-03T15:34:27.014Z,21.60
2018-09-03T15:36:54.591Z,21.60
2018-09-03T15:39:22.154Z,21.50
2018-09-03T15:41:50.708Z,21.50
2018-09-03T15:44:18.266Z,21.20
2018-09-03T15:46:47.737Z,21.20
2018-09-03T15:49:15.303Z,21.20
2018-09-03T15:51:42.872Z,20.80
2018-09-03T15:54:10.466Z,20.70
2018-09-03T15:56:38.049Z,20.70
2018-09-03T15:59:05.605Z,20.70
2018-09-03T16:01:33.931Z,21.00
2018-09-03T16:04:01.493Z,20.90
2018-09-03T16:06:29.057Z,21.10
2018-09-03T16:08:58.559Z,21.20
2018-09-03T16:11:26.121Z,21.20
2018-09-03T16:13:53.681Z,21.20
2018-09-03T16:16:21.245Z,21.10
2018-09-03T16:18:48.807Z,21.10
2018-09-03T16:21:16.399Z,21.10
2018-09-03T16:23:43.960Z,21.00
2018-09-03T16:26:11.525Z,21.00
2018-09-03T16:28:41.037Z,21.00
2018-09-03T16:31:08.602Z,20.90
2018-09-03T16:33:36.162Z,20.90
2018-09-03T16:36:04.346Z,20.80
2018-09-03T16:38:31.957Z,20.80
2018-09-03T16:40:59.521Z,20.70
2018-09-03T16:43:27.077Z,20.70
2018-09-03T16:45:54.632Z,20.60
2018-09-03T16:48:23.159Z,20.50
2018-09-03T16:50:50.713Z,20.50
2018-09-03T16:53:18.265Z,20.30
2018-09-03T16:55:45.829Z,20.30
2018-09-03T16:58:13.385Z,20.30
2018-09-03T17:00:40.937Z,20.20
2018-09-03T17:03:08.497Z,20.20
2018-09-03T17:05:36.066Z,20.10
2018-09-03T17:08:03.730Z,20.00
2018-09-03T17:10:31.193Z,19.90
2018-09-03T17:12:58.744Z,19.90
2018-09-03T17:15:26.308Z,19.90
2018-09-03T17:17:53.861Z,19.80
2018-09-03T17:20:21.448Z,19.70
2018-09-03T17:22:49.771Z,19.60
2018-09-03T17:25:19.259Z,19.60
2018-09-03T17:27:47.729Z,19.50
2018-09-03T17:30:15.285Z,19.40
2018-09-03T17:32:42.842Z,19.30
2018-09-03T17:35:10.408Z,19.30
2018-09-03T17:37:37.969Z,19.20
2018-09-03T17:40:05.525Z,19.10
2018-09-03T17:42:33.085Z,19.00
2018-09-03T17:45:01.597Z,18.90
2018-09-03T17:47:29.164Z,18.80
2018-09-03T17:49:56.725Z,18.70
2018-09-03T17:52:24.277Z,18.60
2018-09-03T17:54:51.838Z,18.50
2018-09-03T17:57:19.409Z,18.30
2018-09-03T17:59:47.749Z,18.10
2018-09-03T18:02:15.313Z,18.10
2018-09-03T18:04:42.890Z,18.00
2018-09-03T18:07:11.420Z,17.90
2018-09-03T18:09:38.992Z,17.90
2018-09-03T18:12:06.577Z,17.80
2018-09-03T18:14:34.922Z,17.70
2018-09-03T18:17:02.483Z,17.70
2018-09-03T18:19:30.045Z,17.70
2018-09-03T18:21:57.600Z,17.70
2018-09-03T18:24:25.165Z,17.70
2018-09-03T18:26:52.729Z,17.60
2018-09-03T18:29:20.290Z,17.60
2018-09-03T18:31:47.851Z,17.60
2018-09-03T18:34:15.404Z,17.60
2018-09-03T18:36:42.969Z,17.50
2018-09-03T18:39:10.522Z,17.50
2018-09-03T18:41:40.048Z,17.40
2018-09-03T18:44:07.625Z,17.40
2018-09-03T18:46:35.187Z,17.30
2018-09-03T18:49:03.673Z,17.30
2018-09-03T18:51:31.229Z,17.20
2018-09-03T18:53:58.799Z,17.20
2018-09-03T18:56:26.361Z,17.10
2018-09-03T18:58:53.925Z,17.10
2018-09-03T19:01:21.502Z,17.00
2018-09-03T19:03:51.017Z,17.00
2018-09-03T19:06:19.518Z,17.00
2018-09-03T19:08:47.838Z,16.90
2018-09-03T19:11:15.401Z,16.90
2018-09-03T19:13:42.965Z,16.90
2018-09-03T19:16:10.530Z,16.90
2018-09-03T19:18:38.089Z,16.90
2018-09-03T19:21:05.652Z,16.90
2018-09-03T19:23:35.152Z,16.90
2018-09-03T19:26:02.712Z,16.90
2018-09-03T19:28:30.303Z,17.00
2018-09-03T19:30:59.609Z,17.10
2018-09-03T19:33:28.147Z,17.00
2018-09-03T19:35:55.706Z,17.00
2018-09-03T19:38:24.198Z,17.00
2018-09-03T19:40:51.761Z,17.00
2018-09-03T19:43:19.321Z,17.00
2018-09-03T19:45:47.655Z,16.90
2018-09-03T19:48:15.220Z,16.80
2018-09-03T19:50:42.788Z,16.90
2018-09-03T19:53:10.340Z,16.90
2018-09-03T19:55:38.862Z,16.90
2018-09-03T19:58:06.418Z,16.90
2018-09-03T20:00:35.188Z,16.80
2018-09-03T20:03:02.793Z,16.80
2018-09-03T20:05:30.355Z,16.80
2018-09-03T20:07:57.917Z,16.80
2018-09-03T20:10:26.429Z,16.90
2018-09-03T20:12:55.165Z,16.80
2018-09-03T20:15:22.734Z,16.80
2018-09-03T20:17:50.290Z,16.80
2018-09-03T20:20:17.853Z,16.80
2018-09-03T20:22:45.429Z,16.80
2018-09-03T20:25:12.998Z,16.80
2018-09-03T20:27:40.560Z,16.80
2018-09-03T20:30:09.806Z,16.80
2018-09-03T20:32:37.389Z,16.80
2018-09-03T20:35:04.940Z,16.70
2018-09-03T20:37:34.444Z,16.70
2018-09-03T20:40:01.993Z,16.60
2018-09-03T20:42:29.553Z,16.60
2018-09-03T20:44:57.109Z,16.60
2018-09-03T20:47:24.668Z,16.50
2018-09-03T20:49:52.225Z,16.40
2018-09-03T20:52:19.786Z,16.40
2018-09-03T20:54:47.335Z,16.30
2018-09-03T20:57:14.888Z,16.20
2018-09-03T20:59:42.462Z,16.20
2018-09-03T21:02:10.960Z,16.10
2018-09-03T21:04:38.519Z,16.00
2018-09-03T21:07:06.993Z,16.00
2018-09-03T21:09:34.549Z,16.00
2018-09-03T21:12:02.102Z,15.90
2018-09-03T21:14:29.697Z,15.80
2018-09-03T21:16:57.239Z,15.80
2018-09-03T21:19:24.829Z,15.70
2018-09-03T21:21:52.408Z,15.70
2018-09-03T21:24:21.913Z,15.60
2018-09-03T21:26:50.443Z,15.60
2018-09-03T21:29:17.992Z,15.50
2018-09-03T21:31:47.257Z,15.40
2018-09-03T21:34:14.817Z,15.40
2018-09-03T21:36:42.372Z,15.30
2018-09-03T21:39:11.923Z,15.20
2018-09-03T21:41:39.469Z,15.20
2018-09-03T21:44:07.790Z,15.20
2018-09-03T21:46:35.366Z,15.20
2018-09-03T21:49:02.956Z,15.10
2018-09-03T21:51:30.533Z,15.20
2018-09-03T21:54:00.088Z,15.10
2018-09-03T21:56:28.589Z,15.10
2018-09-03T21:58:56.146Z,15.10
2018-09-03T22:01:25.654Z,15.10
2018-09-03T22:03:53.977Z,15.10
2018-09-03T22:06:21.529Z,15.10
2018-09-03T22:08:49.081Z,15.00
2018-09-03T22:11:16.642Z,15.00
2018-09-03T22:13:44.222Z,15.00
2018-09-03T22:16:12.745Z,15.00
2018-09-03T22:18:40.317Z,14.90
2018-09-03T22:21:09.892Z,15.00
2018-09-03T22:23:39.409Z,15.00
2018-09-03T22:26:06.979Z,14.90
2018-09-03T22:28:34.548Z,14.90
2018-09-03T22:31:02.106Z,14.90
2018-09-03T22:33:29.662Z,14.80
2018-09-03T22:35:57.217Z,14.80
2018-09-03T22:38:24.798Z,14.80
2018-09-03T22:40:52.361Z,14.80
2018-09-03T22:43:19.925Z,14.80
2018-09-03T22:45:47.476Z,14.80
2018-09-03T22:48:15.038Z,14.80
2018-09-03T22:50:42.600Z,14.80
2018-09-03T22:53:10.163Z,14.70
2018-09-03T22:55:37.716Z,14.70
2018-09-03T22:58:05.271Z,14.80
2018-09-03T23:00:33.785Z,14.80
2018-09-03T23:03:02.125Z,14.80
2018-09-03T23:05:29.717Z,14.80
2018-09-03T23:07:59.188Z,14.70
2018-09-03T23:10:26.749Z,14.70
2018-09-03T23:12:54.325Z,14.70
2018-09-03T23:15:22.885Z,14.70
2018-09-03T23:17:50.449Z,14.70
2018-09-03T23:20:18.009Z,14.70
2018-09-03T23:22:46.514Z,14.70
2018-09-03T23:25:14.099Z,14.60
2018-09-03T23:27:41.664Z,14.60
2018-09-03T23:30:09.249Z,14.60
2018-09-03T23:32:36.820Z,14.60
2018-09-03T23:35:04.373Z,14.60
2018-09-03T23:37:31.930Z,14.60
2018-09-03T23:39:59.480Z,14.60
2018-09-03T23:42:27.033Z,14.50
2018-09-03T23:44:54.585Z,14.50
2018-09-03T23:47:22.146Z,14.50
2018-09-03T23:49:49.701Z,14.40
2018-09-03T23:52:17.336Z,14.30
2018-09-03T23:54:44.901Z,14.30
2018-09-03T23:57:12.461Z,14.20
2018-09-03T23:59:41.981Z,14.20
